createdAt,value
2019-01-09T00:03:58.417Z,100478.36
2019-01-09T00:06:24.663Z,100483.59
2019-01-09T00:08:50.925Z,100475.78
2019-01-09T00:11:17.159Z,100475.32
2019-01-09T00:13:43.412Z,100475.36
2019-01-09T00:16:09.674Z,100477.45
2019-01-09T00:18:35.926Z,100485.16
2019-01-09T00:21:02.248Z,100494.94
2019-01-09T00:23:28.488Z,100491.41
2019-01-09T00:25:54.711Z,100496.66
2019-01-09T00:28:20.964Z,100499.27
2019-01-09T00:30:47.179Z,100503.10
2019-01-09T00:33:13.338Z,100514.26
2019-01-09T00:35:39.569Z,100510.35
2019-01-09T00:38:05.799Z,100516.42
2019-01-09T00:40:31.929Z,100522.41
2019-01-09T00:42:58.182Z,100523.62
2019-01-09T00:45:24.411Z,100531.78
2019-01-09T00:47:50.638Z,100536.07
2019-01-09T00:50:16.780Z,100527.74
2019-01-09T00:52:43.015Z,100538.44
2019-01-09T00:55:50.560Z,100544.79
2019-01-09T00:58:16.830Z,100543.78
2019-01-09T01:00:43.089Z,100545.39
2019-01-09T01:03:48.865Z,100548.84
2019-01-09T01:06:54.628Z,100546.59
2019-01-09T01:10:02.211Z,100556.34
2019-01-09T01:13:07.956Z,100566.03
2019-01-09T01:16:15.507Z,100571.92
2019-01-09T01:28:35.988Z,100591.48
2019-01-09T01:31:41.764Z,100598.73
2019-01-09T01:34:47.509Z,61689.57
2019-01-09T01:37:53.252Z,61686.02
2019-01-09T01:40:58.990Z,61670.65
2019-01-09T01:44:04.736Z,61663.80
2019-01-09T01:47:10.507Z,61659.30
2019-01-09T01:50:16.254Z,61665.12
2019-01-09T01:53:22.043Z,61656.40
2019-01-09T02:02:29.649Z,61650.49
2019-01-09T02:05:37.178Z,61651.57
2019-01-09T02:32:43.528Z,61663.62
2019-01-09T02:35:09.772Z,61650.09
2019-01-09T02:37:36.021Z,61652.09
2019-01-09T02:40:02.255Z,61647.80
2019-01-09T02:42:28.403Z,61645.86
2019-01-09T02:44:54.653Z,61643.36
2019-01-09T02:47:20.912Z,61642.82
2019-01-09T02:49:47.153Z,61639.73
2019-01-09T02:52:13.404Z,61649.81
2019-01-09T02:54:39.636Z,61656.80
2019-01-09T02:57:05.783Z,61657.13
2019-01-09T02:59:32.034Z,61659.49
2019-01-09T03:01:58.261Z,61659.63
2019-01-09T03:04:24.497Z,61652.25
2019-01-09T03:06:50.843Z,61649.27
2019-01-09T03:09:17.079Z,61640.82
2019-01-09T03:11:43.317Z,61633.07
2019-01-09T03:14:09.569Z,61630.93
2019-01-09T03:16:35.818Z,61632.60
2019-01-09T03:19:02.067Z,61632.79
2019-01-09T03:21:28.400Z,61629.03
2019-01-09T03:23:54.560Z,61623.61
2019-01-09T03:26:20.805Z,61630.70
2019-01-09T03:28:47.058Z,61626.34
2019-01-09T03:31:13.217Z,61632.44
2019-01-09T03:33:39.448Z,61635.15
2019-01-09T03:36:05.692Z,61631.33
2019-01-09T03:38:31.938Z,61636.84
2019-01-09T03:40:58.173Z,61665.04
2019-01-09T03:43:24.425Z,61667.89
2019-01-09T03:45:50.650Z,61686.46
2019-01-09T03:48:16.801Z,61693.19
2019-01-09T03:50:43.058Z,61704.89
2019-01-09T03:53:09.301Z,61723.45
2019-01-09T03:55:35.575Z,61719.90
2019-01-09T03:58:01.790Z,61728.96
2019-01-09T04:00:27.925Z,61728.85
2019-01-09T04:02:54.064Z,61735.52
2019-01-09T04:05:20.327Z,61744.34
2019-01-09T04:07:46.563Z,61763.71
2019-01-09T04:10:12.711Z,61779.88
2019-01-09T04:12:38.944Z,61787.43
2019-01-09T04:15:46.512Z,61800.54
2019-01-09T04:18:12.768Z,61810.83
2019-01-09T04:20:38.900Z,61820.55
2019-01-09T04:23:05.143Z,61829.98
2019-01-09T04:25:31.393Z,61826.36
2019-01-09T04:27:57.632Z,61815.58
2019-01-09T04:30:23.883Z,61810.45
2019-01-09T04:32:50.008Z,61818.16
2019-01-09T04:35:16.263Z,61804.37
2019-01-09T04:37:42.483Z,61794.43
2019-01-09T04:40:08.764Z,61799.13
2019-01-09T04:42:34.999Z,61786.88
2019-01-09T04:45:01.444Z,61774.62
2019-01-09T04:47:27.650Z,61769.79
2019-01-09T04:49:53.780Z,61771.26
2019-01-09T04:52:20.016Z,61763.52
2019-01-09T04:54:46.257Z,61756.52
2019-01-09T04:57:12.495Z,61749.17
2019-01-09T04:59:38.848Z,61741.49
2019-01-09T05:02:05.078Z,61734.84
2019-01-09T05:04:31.334Z,61730.39
2019-01-09T05:07:00.701Z,61725.21
2019-01-09T05:09:25.733Z,61723.58
2019-01-09T05:11:51.983Z,61710.21
2019-01-09T05:14:18.233Z,61703.90
2019-01-09T05:16:44.396Z,61699.45
2019-01-09T05:19:10.634Z,61697.36
2019-01-09T05:21:36.888Z,61708.61
2019-01-09T05:24:03.145Z,61698.58
2019-01-09T05:26:29.291Z,61704.60
2019-01-09T05:28:55.524Z,61698.42
2019-01-09T05:31:21.794Z,61701.37
2019-01-09T05:33:48.018Z,61697.30
2019-01-09T05:36:14.269Z,61705.96
2019-01-09T05:38:40.496Z,61716.23
2019-01-09T05:41:06.656Z,61716.59
2019-01-09T05:43:32.887Z,61710.76
2019-01-09T05:45:59.036Z,61721.58
2019-01-09T05:48:25.271Z,61721.58
2019-01-09T05:50:51.502Z,61715.45
2019-01-09T05:53:17.741Z,61724.23
2019-01-09T05:55:43.997Z,61708.67
2019-01-09T05:58:10.237Z,61708.37
2019-01-09T06:00:36.498Z,61700.78
2019-01-09T06:03:02.732Z,61689.23
2019-01-09T06:05:28.967Z,61686.19
2019-01-09T06:08:07.606Z,61691.83
2019-01-09T06:13:06.472Z,61676.84
2019-01-09T06:15:32.832Z,61667.16
2019-01-09T06:17:59.056Z,61670.95
2019-01-09T06:20:25.303Z,61653.37
2019-01-09T06:22:51.463Z,61652.01
2019-01-09T06:25:17.600Z,61645.31
2019-01-09T06:27:43.844Z,61644.47
2019-01-09T06:30:10.124Z,61630.06
2019-01-09T06:32:36.420Z,61621.85
2019-01-09T06:35:02.758Z,61607.82
2019-01-09T06:37:29.013Z,61601.89
2019-01-09T06:39:55.249Z,61612.55
2019-01-09T06:42:21.514Z,61604.43
2019-01-09T06:44:47.648Z,61593.49
2019-01-09T06:47:13.897Z,61586.92
2019-01-09T06:49:40.127Z,61589.11
2019-01-09T06:52:06.394Z,61582.76
2019-01-09T06:54:32.669Z,61583.35
2019-01-09T06:56:58.910Z,61578.26
2019-01-09T06:59:25.200Z,61592.44
2019-01-09T07:01:51.497Z,61585.02
2019-01-09T07:04:17.801Z,61584.76
2019-01-09T07:06:44.083Z,61582.95
2019-01-09T07:09:10.317Z,61585.02
2019-01-09T07:11:36.549Z,61575.68
2019-01-09T07:14:02.810Z,61563.42
2019-01-09T07:16:29.092Z,61561.45
2019-01-09T07:18:55.324Z,61550.13
2019-01-09T07:21:21.569Z,61545.29
2019-01-09T07:23:47.829Z,61542.80
2019-01-09T07:26:14.064Z,61541.04
2019-01-09T07:28:41.807Z,61533.32
2019-01-09T07:31:08.438Z,61524.53
2019-01-09T07:33:34.682Z,61535.14
2019-01-09T07:36:00.916Z,61520.29
2019-01-09T07:38:27.175Z,61511.83
2019-01-09T07:40:53.423Z,61512.04
2019-01-09T07:43:19.675Z,61513.31
2019-01-09T07:45:45.931Z,61508.07
2019-01-09T07:48:12.169Z,61510.66
2019-01-09T07:50:38.298Z,61499.14
2019-01-09T07:53:04.539Z,61495.19
2019-01-09T07:55:30.774Z,61499.05
2019-01-09T07:57:57.019Z,61485.67
2019-01-09T08:00:23.257Z,61486.07
2019-01-09T08:02:49.625Z,61483.91
2019-01-09T08:05:15.761Z,61485.18
2019-01-09T08:07:41.995Z,61479.23
2019-01-09T08:10:49.544Z,61478.74
2019-01-09T08:13:15.692Z,61477.92
2019-01-09T08:15:41.923Z,61460.30
2019-01-09T08:18:08.163Z,61454.05
2019-01-09T08:20:34.390Z,61440.96
2019-01-09T08:23:00.640Z,61437.41
2019-01-09T08:25:26.771Z,61434.34
2019-01-09T08:27:52.921Z,61437.41
2019-01-09T08:30:19.165Z,61437.25
2019-01-09T08:32:45.295Z,61420.93
2019-01-09T08:35:11.547Z,61415.41
2019-01-09T08:37:37.786Z,61406.63
2019-01-09T08:40:45.337Z,61404.00
2019-01-09T08:43:11.664Z,61401.84
2019-01-09T08:45:37.909Z,61399.58
2019-01-09T08:48:04.056Z,61401.18
2019-01-09T08:50:30.294Z,61392.16
2019-01-09T08:52:56.521Z,61379.79
2019-01-09T08:55:22.676Z,61380.17
2019-01-09T08:57:48.902Z,61382.52
2019-01-09T09:00:15.160Z,61380.21
2019-01-09T09:02:41.395Z,61381.64
2019-01-09T09:05:07.635Z,61377.68
2019-01-09T09:10:41.223Z,61384.18
2019-01-09T09:13:48.778Z,61382.70
2019-01-09T09:16:15.032Z,61389.58
2019-01-09T09:18:41.284Z,61382.42
2019-01-09T09:21:07.562Z,61373.93
2019-01-09T09:23:33.789Z,61376.41
2019-01-09T09:25:59.921Z,61377.54
2019-01-09T09:28:26.159Z,61379.35
2019-01-09T09:30:52.405Z,61379.30
2019-01-09T09:33:18.638Z,61383.05
2019-01-09T09:35:44.880Z,61382.33
2019-01-09T09:38:11.022Z,61383.05
2019-01-09T09:40:37.275Z,61377.63
2019-01-09T09:43:03.509Z,61381.25
2019-01-09T09:45:29.661Z,61379.98
2019-01-09T09:47:55.896Z,61384.46
2019-01-09T09:50:22.140Z,61390.61
2019-01-09T09:52:48.275Z,61388.22
2019-01-09T09:55:14.420Z,61390.57
2019-01-09T09:57:40.668Z,61389.49
2019-01-09T10:00:28.485Z,61403.97
2019-01-09T10:02:54.629Z,61384.46
2019-01-09T10:05:20.875Z,61388.95
2019-01-09T10:07:47.108Z,61392.89
2019-01-09T10:13:09.908Z,61403.06
2019-01-09T10:15:36.063Z,61411.70
2019-01-09T10:18:02.318Z,61408.77
2019-01-09T10:20:28.570Z,61413.27
2019-01-09T10:22:54.719Z,61415.55
2019-01-09T10:25:20.972Z,61421.66
2019-01-09T10:27:47.119Z,61421.99
2019-01-09T10:30:33.087Z,61427.22
2019-01-09T10:32:59.330Z,61437.11
2019-01-09T10:35:25.604Z,61439.79
2019-01-09T10:37:51.850Z,61436.15
2019-01-09T10:43:32.229Z,61451.41
2019-01-09T10:45:58.480Z,61470.19
2019-01-09T10:48:24.724Z,61457.45
2019-01-09T10:50:50.959Z,61457.66
2019-01-09T10:53:17.203Z,61457.45
2019-01-09T10:55:43.465Z,61463.37
2019-01-09T10:58:09.745Z,61468.68
2019-01-09T11:00:35.969Z,61473.95
2019-01-09T11:05:56.139Z,61476.74
2019-01-09T11:08:22.396Z,61488.45
2019-01-09T11:10:48.627Z,61485.72
2019-01-09T11:13:14.895Z,61487.34
2019-01-09T11:15:41.031Z,61487.48
2019-01-09T11:18:07.279Z,61498.95
2019-01-09T11:20:33.515Z,61496.46
2019-01-09T11:22:59.764Z,61497.00
2019-01-09T11:25:26.099Z,61508.62
2019-01-09T11:27:52.343Z,61496.11
2019-01-09T11:30:18.772Z,61497.00
2019-01-09T11:32:45.010Z,61495.73
2019-01-09T11:38:24.752Z,61498.06
2019-01-09T11:40:50.986Z,61498.06
2019-01-09T11:43:17.232Z,61493.38
2019-01-09T11:45:43.463Z,61488.94
2019-01-09T11:48:09.707Z,61489.67
2019-01-09T11:50:35.944Z,61492.89
2019-01-09T11:53:02.193Z,61489.08
2019-01-09T11:55:28.420Z,61490.40
2019-01-09T11:57:54.677Z,61487.34
2019-01-09T12:03:34.989Z,61479.61
2019-01-09T12:06:01.216Z,61486.36
2019-01-09T12:08:27.457Z,61478.44
2019-01-09T12:10:53.687Z,61467.46
2019-01-09T12:13:19.929Z,61460.84
2019-01-09T12:15:46.173Z,61465.56
2019-01-09T12:18:12.325Z,61457.80
2019-01-09T12:20:38.575Z,61441.55
2019-01-09T12:23:04.732Z,61449.26
2019-01-09T12:25:30.993Z,61441.69
2019-01-09T12:27:57.221Z,61440.63
2019-01-09T12:31:04.773Z,61438.47
2019-01-09T12:33:31.034Z,61429.36
2019-01-09T12:35:57.277Z,61419.50
2019-01-09T12:38:23.523Z,61419.89
2019-01-09T12:40:49.769Z,61408.44
2019-01-09T12:43:16.013Z,61400.73
2019-01-09T12:45:42.162Z,61393.24
2019-01-09T12:48:08.395Z,61389.09
2019-01-09T12:50:34.533Z,61395.82
2019-01-09T12:53:00.765Z,61388.62
2019-01-09T12:55:27.008Z,61381.98
2019-01-09T12:57:53.241Z,61381.69
2019-01-09T13:00:39.229Z,61370.57
2019-01-09T13:03:05.468Z,61372.87
2019-01-09T13:05:31.724Z,61352.88
2019-01-09T13:07:57.955Z,61348.25
2019-01-09T13:10:24.189Z,61338.02
2019-01-09T13:12:50.333Z,61331.05
2019-01-09T13:15:16.579Z,61324.27
2019-01-09T13:17:42.926Z,61322.12
2019-01-09T13:20:30.728Z,61316.37
2019-01-09T13:22:56.864Z,61313.20
2019-01-09T13:25:23.101Z,61311.51
2019-01-09T13:27:49.327Z,61298.21
2019-01-09T13:30:56.880Z,61292.52
2019-01-09T13:33:23.107Z,61279.74
2019-01-09T13:35:49.362Z,61275.66
2019-01-09T13:38:15.673Z,61272.30
2019-01-09T13:40:41.841Z,61259.20
2019-01-09T13:43:08.068Z,61254.96
2019-01-09T13:45:34.319Z,61249.26
2019-01-09T13:48:00.440Z,61251.98
2019-01-09T13:50:26.586Z,61244.60
2019-01-09T13:52:52.805Z,61244.97
2019-01-09T13:55:19.041Z,61252.77
2019-01-09T13:57:45.358Z,61227.49
2019-01-09T14:00:31.264Z,61234.27
2019-01-09T14:02:57.496Z,61221.79
2019-01-09T14:05:23.741Z,61213.08
2019-01-09T14:07:49.970Z,61213.45
2019-01-09T14:10:57.521Z,61205.87
2019-01-09T14:13:23.761Z,61208.25
2019-01-09T14:15:50.011Z,61203.49
2019-01-09T14:18:16.145Z,61195.95
2019-01-09T14:20:42.376Z,61188.95
2019-01-09T14:23:08.628Z,61198.86
2019-01-09T14:25:34.853Z,61187.87
2019-01-09T14:28:01.594Z,61183.09
2019-01-09T14:30:29.227Z,61169.00
2019-01-09T14:32:55.374Z,61162.58
2019-01-09T14:35:21.629Z,61166.56
2019-01-09T14:37:47.859Z,61151.30
2019-01-09T14:40:37.245Z,61143.13
2019-01-09T14:43:03.799Z,61141.57
2019-01-09T14:45:30.026Z,61140.87
2019-01-09T14:47:56.170Z,61134.23
2019-01-09T14:51:03.754Z,61117.80
2019-01-09T14:53:30.007Z,61111.58
2019-01-09T14:55:56.248Z,61099.97
2019-01-09T14:58:22.500Z,61100.20
2019-01-09T15:00:48.856Z,61095.20
2019-01-09T15:03:15.067Z,61091.60
2019-01-09T15:05:41.296Z,61095.92
2019-01-09T15:08:07.538Z,61093.07
2019-01-09T15:10:33.660Z,61085.19
2019-01-09T15:12:59.895Z,61082.70
2019-01-09T15:18:33.495Z,61083.12
2019-01-09T15:20:59.723Z,61087.57
2019-01-09T15:23:25.968Z,61082.85
2019-01-09T15:25:52.109Z,61086.80
2019-01-09T15:28:18.335Z,61081.50
2019-01-09T15:30:44.467Z,61078.16
2019-01-09T15:33:10.626Z,61065.09
2019-01-09T15:35:36.844Z,61064.98
2019-01-09T15:38:03.181Z,61058.68
2019-01-09T15:40:29.402Z,61061.35
2019-01-09T15:42:55.647Z,61055.48
2019-01-09T15:48:11.983Z,61043.57
2019-01-09T15:50:38.212Z,61039.64
2019-01-09T15:53:04.463Z,61039.11
2019-01-09T15:55:30.686Z,61032.12
2019-01-09T15:57:57.074Z,61024.10
2019-01-09T16:00:43.062Z,61021.48
2019-01-09T16:03:09.308Z,61016.83
2019-01-09T16:05:35.553Z,61015.25
2019-01-09T16:08:01.675Z,61009.39
2019-01-09T16:10:27.915Z,61003.13
2019-01-09T16:12:54.041Z,60996.72
2019-01-09T16:18:13.762Z,60990.50
2019-01-09T16:20:40.001Z,60989.68
2019-01-09T16:23:06.226Z,60980.16
2019-01-09T16:25:32.367Z,60979.43
2019-01-09T16:27:58.590Z,60980.01
2019-01-09T16:31:04.333Z,60979.14
2019-01-09T16:33:30.559Z,60977.89
2019-01-09T16:35:56.794Z,60979.14
2019-01-09T16:38:22.922Z,60973.22
2019-01-09T16:40:49.162Z,60973.80
2019-01-09T16:43:15.479Z,60965.37
2019-01-09T16:45:41.621Z,60970.22
2019-01-09T16:48:07.841Z,60972.20
2019-01-09T16:50:34.191Z,60968.28
2019-01-09T16:53:00.316Z,60962.75
2019-01-09T16:55:26.653Z,60960.45
2019-01-09T16:57:59.676Z,60954.20
2019-01-09T17:01:07.229Z,60952.07
2019-01-09T17:03:33.462Z,60947.82
2019-01-09T17:05:59.695Z,60931.96
2019-01-09T17:08:25.925Z,60927.36
2019-01-09T17:10:52.188Z,60923.27
2019-01-09T17:13:18.408Z,60909.18
2019-01-09T17:15:46.547Z,60909.98
2019-01-09T17:18:12.886Z,60910.24
2019-01-09T17:20:39.026Z,60892.91
2019-01-09T17:23:05.257Z,60885.55
2019-01-09T17:25:31.500Z,60892.19
2019-01-09T17:27:57.732Z,60885.55
2019-01-09T17:33:26.470Z,60885.52
2019-01-09T17:35:52.630Z,60858.94
2019-01-09T17:38:20.763Z,60848.28
2019-01-09T17:40:47.006Z,60843.68
2019-01-09T17:43:13.224Z,60829.84
2019-01-09T17:45:39.492Z,60815.45
2019-01-09T17:48:05.722Z,60800.86
2019-01-09T17:51:13.264Z,60795.39
2019-01-09T17:53:39.508Z,60789.68
2019-01-09T17:56:05.745Z,60787.54
2019-01-09T17:58:32.074Z,60777.24
2019-01-09T18:00:58.379Z,60769.78
2019-01-09T18:03:24.621Z,60760.35
2019-01-09T18:08:38.468Z,60762.89
2019-01-09T18:14:05.471Z,60753.96
2019-01-09T18:16:31.726Z,60769.56
2019-01-09T18:18:57.963Z,60756.12
2019-01-09T18:21:24.088Z,60749.88
2019-01-09T18:23:50.322Z,60743.85
2019-01-09T18:26:16.642Z,60743.00
2019-01-09T18:28:42.778Z,60735.54
2019-01-09T18:34:23.089Z,60724.53
2019-01-09T18:37:30.653Z,60719.60
2019-01-09T18:40:36.389Z,60729.10
2019-01-09T18:43:42.158Z,60716.74
2019-01-09T18:46:40.716Z,60708.89
2019-01-09T18:49:46.467Z,60712.83
2019-01-09T18:55:13.247Z,60705.70
2019-01-09T18:57:39.815Z,60711.82
2019-01-09T19:00:25.813Z,60710.36
2019-01-09T19:02:51.957Z,60711.61
2019-01-09T19:05:18.190Z,60711.25
2019-01-09T19:07:44.624Z,60705.58
2019-01-09T19:10:30.729Z,60700.79
2019-01-09T19:12:56.963Z,60696.73
2019-01-09T19:15:23.311Z,60695.51
2019-01-09T19:17:49.559Z,60691.39
2019-01-09T19:20:16.111Z,60685.84
2019-01-09T19:22:42.547Z,60694.62
2019-01-09T19:25:50.119Z,60685.31
2019-01-09T19:28:16.473Z,60700.35
2019-01-09T19:30:44.913Z,60683.58
2019-01-09T19:33:11.136Z,60685.34
2019-01-09T19:35:37.381Z,60680.42
2019-01-09T19:38:03.615Z,60665.99
2019-01-09T19:40:29.865Z,60657.08
2019-01-09T19:42:56.001Z,60661.08
2019-01-09T19:45:22.237Z,60660.87
2019-01-09T19:47:48.361Z,60663.02
2019-01-09T19:50:42.327Z,60657.65
2019-01-09T19:53:02.680Z,60658.04
2019-01-09T19:55:28.932Z,60658.22
2019-01-09T19:57:55.076Z,60655.18
2019-01-09T20:01:02.629Z,60654.31
2019-01-09T20:03:28.893Z,60659.47
2019-01-09T20:05:55.238Z,60654.66
2019-01-09T20:08:21.468Z,60647.58
2019-01-09T20:10:47.703Z,60638.37
2019-01-09T20:13:13.973Z,60625.56
2019-01-09T20:15:40.118Z,60625.26
2019-01-09T20:18:06.513Z,60612.12
2019-01-09T20:20:32.739Z,60606.49
2019-01-09T20:22:58.977Z,60600.45
2019-01-09T20:25:25.266Z,60601.70
2019-01-09T20:27:51.373Z,60615.79
2019-01-09T20:30:58.905Z,60609.32
2019-01-09T20:33:25.160Z,60612.31
2019-01-09T20:35:51.326Z,60616.56
2019-01-09T20:38:17.522Z,60616.90
2019-01-09T20:40:43.890Z,60624.20
2019-01-09T20:43:10.105Z,60625.63
2019-01-09T20:45:36.351Z,60620.62
2019-01-09T20:48:02.493Z,60611.92
2019-01-09T20:53:22.660Z,60591.99
2019-01-09T20:55:49.146Z,60584.69
2019-01-09T20:58:15.306Z,60582.22
2019-01-09T21:00:41.489Z,60579.94
2019-01-09T21:05:41.687Z,60574.93
2019-01-09T21:08:07.919Z,60573.88
2019-01-09T21:10:34.188Z,60577.10
2019-01-09T21:13:00.320Z,60578.12
2019-01-09T21:15:26.540Z,60587.49
2019-01-09T21:17:52.767Z,60594.45
2019-01-09T21:20:38.776Z,60590.38
2019-01-09T21:23:04.938Z,60585.23
2019-01-09T21:25:31.055Z,60575.78
2019-01-09T21:27:57.195Z,60583.32
2019-01-09T21:31:04.732Z,60578.89
2019-01-09T21:33:30.979Z,60570.88
2019-01-09T21:35:57.193Z,60573.20
2019-01-09T21:38:23.333Z,60569.96
2019-01-09T21:40:49.462Z,60567.51
2019-01-09T21:43:15.594Z,60566.97
2019-01-09T21:45:41.822Z,60573.00
2019-01-09T21:48:07.956Z,60572.63
2019-01-09T21:50:34.075Z,60562.72
2019-01-09T21:53:00.212Z,60555.96
2019-01-09T21:55:26.333Z,60566.66
2019-01-09T21:57:52.457Z,60574.60
2019-01-09T22:00:59.984Z,60571.21
2019-01-09T22:03:26.301Z,60567.01
2019-01-09T22:05:52.442Z,60555.46
2019-01-09T22:11:12.248Z,60546.44
2019-01-09T22:13:38.412Z,60547.19
2019-01-09T22:16:04.597Z,60540.25
2019-01-09T22:18:30.896Z,60534.21
2019-01-09T22:20:57.055Z,60534.95
2019-01-09T22:23:23.742Z,60538.85
2019-01-09T22:28:26.409Z,60530.13
2019-01-09T22:30:52.563Z,60539.95
2019-01-09T22:33:18.727Z,60530.13
2019-01-09T22:35:44.896Z,60526.56
2019-01-09T22:38:11.068Z,60530.70
2019-01-09T22:40:37.325Z,60521.06
2019-01-09T22:43:03.494Z,60527.13
2019-01-09T22:45:29.683Z,60525.94
2019-01-09T22:47:55.928Z,60513.32
2019-01-09T22:53:19.095Z,60517.22
2019-01-09T22:55:45.280Z,60513.50
2019-01-09T22:58:11.448Z,60506.45
2019-01-09T23:03:51.747Z,60504.86
2019-01-09T23:06:18.200Z,60494.25
2019-01-09T23:08:44.570Z,60493.39
2019-01-09T23:11:10.838Z,60491.81
2019-01-09T23:13:37.197Z,60480.74
2019-01-09T23:16:44.791Z,60491.24
2019-01-09T23:19:11.058Z,60494.79
2019-01-09T23:21:37.355Z,60497.29
2019-01-09T23:24:03.513Z,60498.36
2019-01-09T23:26:29.707Z,60494.25
2019-01-09T23:28:56.000Z,60498.89
2019-01-09T23:31:22.379Z,60502.58
2019-01-09T23:33:48.687Z,60495.50
2019-01-09T23:36:14.928Z,60494.07
2019-01-09T23:38:41.221Z,60497.99
2019-01-09T23:41:07.494Z,60491.24
2019-01-09T23:43:33.786Z,60486.43
2019-01-09T23:45:59.952Z,60493.36
2019-01-09T23:48:26.164Z,60496.01
2019-01-09T23:50:52.450Z,60497.99
2019-01-09T23:53:18.620Z,60506.48
2019-01-09T23:55:44.944Z,60528.08
2019-01-09T23:58:11.154Z,60531.38
